Time;durP1;ratioP1;P1;durP2;ratioP2;P2;SDS_P1;SDS_P2;PMS_P1;PMS_P2;Temp;Humidity;BMP_temperature;BMP_pressure;BME280_temperature;BME280_humidity;BME280_pressure;Samples;Min_cycle;Max_cycle;Signal;HPM_P1;HPM_P2
2021/07/24 00:10:28;;;;;;;17.23;9.90;;;;;;;16.61;72.05;100496.70;20869134;83;99855;-82
2021/07/24 00:40:32;;;;;;;17.10;10.30;;;;;;;16.17;74.24;100497.37;20939963;83;99720;-81
2021/07/24 01:10:33;;;;;;;19.03;11.67;;;;;;;15.79;76.07;100485.45;20907056;83;99938;-82
2021/07/24 01:40:34;;;;;;;24.87;15.13;;;;;;;15.85;78.20;100473.30;20931318;83;99783;-82
2021/07/24 02:10:36;;;;;;;23.73;15.77;;;;;;;16.15;78.44;100481.73;20923108;83;99692;-82
2021/07/24 02:40:37;;;;;;;25.13;14.80;;;;;;;16.51;79.28;100465.66;20942597;83;100179;-82
2021/07/24 03:10:38;;;;;;;26.30;15.75;;;;;;;16.84;77.74;100445.98;20940645;83;99936;-82
2021/07/24 03:40:42;;;;;;;24.10;14.87;;;;;;;17.15;77.39;100455.24;20928485;83;99616;-82
2021/07/24 04:10:41;;;;;;;26.57;16.80;;;;;;;17.29;77.41;100467.55;20846903;83;104465;-82
2021/07/24 04:40:44;;;;;;;25.02;17.10;;;;;;;17.49;78.16;100477.41;20711161;83;100107;-82
2021/07/24 05:10:45;;;;;;;40.05;18.90;;;;;;;17.87;77.79;100465.59;20803641;83;99881;-79
2021/07/24 05:40:46;;;;;;;30.27;18.57;;;;;;;18.56;77.40;100454.92;20909522;83;99705;-79
2021/07/24 06:10:47;;;;;;;29.10;16.33;;;;;;;19.36;76.25;100465.70;20937637;81;99606;-80
2021/07/24 06:40:47;;;;;;;21.65;14.07;;;;;;;21.49;73.06;100465.03;20949999;83;99656;-80
2021/07/24 07:10:48;;;;;;;20.20;14.23;;;;;;;23.63;66.64;100469.08;20986374;81;99944;-80
2021/07/24 07:40:50;;;;;;;23.57;14.05;;;;;;;25.30;59.19;100489.53;20999224;82;119703;-81
2021/07/24 08:10:51;;;;;;;23.77;12.80;;;;;;;26.35;57.34;100496.89;20905224;83;100340;-82
2021/07/24 08:40:52;;;;;;;16.30;11.65;;;;;;;27.60;53.94;100493.39;20941843;83;99763;-84
2021/07/24 09:10:54;;;;;;;15.20;9.10;;;;;;;28.88;49.64;100479.57;20842094;82;100026;-82
2021/07/24 09:40:58;;;;;;;14.78;9.15;;;;;;;31.71;43.78;100434.13;20752884;83;99914;-84
2021/07/24 10:10:59;;;;;;;14.87;9.55;;;;;;;34.20;39.15;100417.39;20756055;81;99673;-84
2021/07/24 10:41:25;;;;;;;14.30;8.63;;;;;;;33.97;35.49;100391.88;20740334;83;99420;-83
2021/07/24 11:11:45;;;;;;;12.30;7.87;;;;;;;33.09;35.80;100377.14;20791046;83;99769;-84
2021/07/24 11:41:46;;;;;;;11.85;8.00;;;;;;;33.20;35.30;100365.61;20882646;83;122041;-84
2021/07/24 12:11:53;;;;;;;13.43;8.30;;;;;;;34.23;33.93;100356.31;20936669;83;99683;-82
2021/07/24 12:42:03;;;;;;;11.43;8.55;;;;;;;34.32;31.68;100343.08;20900053;83;122469;-83
2021/07/24 13:12:04;;;;;;;11.63;7.60;;;;;;;33.38;31.32;100319.27;20922969;83;99782;-83
2021/07/24 13:42:05;;;;;;;23.38;10.00;;;;;;;33.14;31.93;100312.77;20934924;83;99772;-83
2021/07/24 14:12:07;;;;;;;16.20;7.50;;;;;;;32.40;32.60;100332.34;20913366;83;100043;-83
2021/07/24 14:42:14;;;;;;;11.78;7.75;;;;;;;32.30;33.08;100324.78;20915016;83;99590;-84
2021/07/24 15:12:10;;;;;;;12.70;7.92;;;;;;;30.96;33.00;100310.05;20861093;82;99652;-83
2021/07/24 15:42:11;;;;;;;16.52;8.35;;;;;;;30.70;34.82;100293.30;20825557;83;99862;-84
2021/07/24 16:12:12;;;;;;;14.13;8.70;;;;;;;29.62;36.14;100272.10;20802440;83;99723;-84
2021/07/24 16:42:13;;;;;;;14.73;8.35;;;;;;;29.17;36.55;100246.89;20743614;83;99714;-83
2021/07/24 17:12:13;;;;;;;13.43;8.80;;;;;;;28.17;37.44;100255.95;20844350;83;99558;-84
2021/07/24 17:42:14;;;;;;;13.95;8.35;;;;;;;27.26;39.49;100235.56;20947049;83;99833;-84
2021/07/24 18:12:15;;;;;;;16.42;8.25;;;;;;;26.57;41.58;100233.41;20905533;83;99444;-84
2021/07/24 18:42:16;;;;;;;13.70;8.35;;;;;;;25.69;43.63;100227.02;20847989;83;109219;-84
2021/07/24 19:12:16;;;;;;;13.30;8.25;;;;;;;24.69;45.08;100234.63;20890423;81;99535;-85
2021/07/24 19:42:17;;;;;;;15.13;8.87;;;;;;;23.73;46.91;100252.88;20936530;82;99614;-81
2021/07/24 20:12:18;;;;;;;19.15;9.08;;;;;;;22.96;48.97;100257.05;20909132;83;99654;-83
2021/07/24 20:42:19;;;;;;;15.83;10.40;;;;;;;22.34;51.35;100269.58;20815441;83;99404;-84
2021/07/24 21:12:19;;;;;;;15.43;10.38;;;;;;;21.79;53.56;100278.15;20818591;83;99876;-83
2021/07/24 21:42:20;;;;;;;16.60;10.40;;;;;;;21.36;55.75;100271.08;20737304;83;100199;-83
2021/07/24 22:12:21;;;;;;;14.50;10.35;;;;;;;20.97;57.57;100266.02;20778126;83;100920;-84
2021/07/24 22:42:22;;;;;;;14.53;9.85;;;;;;;20.59;59.36;100292.62;20916619;83;100052;-84
2021/07/24 23:12:22;;;;;;;14.95;10.05;;;;;;;20.34;60.09;100302.41;20916729;83;99743;-82
2021/07/24 23:42:23;;;;;;;16.77;11.45;;;;;;;20.01;61.35;100303.75;20929407;83;99600;-82
